Clearfork, Virginia
Current Conditions -  °F | °C
As of 12:19 AM on Thursday 18 Dec 2014 (Local Time) from KBLF Reporting Station
Overcast Overcast  
Wind Chill: 18°   Ceiling: 1200
Heat Index: 30°   Visibility: 10mi
Dew Point: 23°   Wind: 17mph
Humidity: 75%   Direction: 290°WNW
Pressure: 30.1"   Gusts: 29mph
Location:  37.1593°N, 81.1986°W
Report Text: KBLF 180519Z AUTO 29015G25KT 10SM OVC012 M01/M05 A3010 RMK AO2 T10111050
Loading
Personal Weather Stations






























Interactive Weather Map New forecast layout! Learn more

10-Day Weather Forecast

Advertisements
Track Severe Weather on mobile